sensor_id;sensor_type;location;lat;lon;timestamp;P1;durP1;ratioP1;P2;durP2;ratioP2
12218;SDS011;6172;42.646;23.344;2022-12-11T00:01:15;12.97;;;8.83;;
12218;SDS011;6172;42.646;23.344;2022-12-11T00:03:43;14.27;;;9.00;;
12218;SDS011;6172;42.646;23.344;2022-12-11T00:06:11;13.83;;;9.60;;
12218;SDS011;6172;42.646;23.344;2022-12-11T00:08:40;14.57;;;8.83;;
12218;SDS011;6172;42.646;23.344;2022-12-11T00:11:08;15.37;;;9.37;;
12218;SDS011;6172;42.646;23.344;2022-12-11T00:13:37;15.50;;;9.93;;
12218;SDS011;6172;42.646;23.344;2022-12-11T00:16:04;16.77;;;12.10;;
12218;SDS011;6172;42.646;23.344;2022-12-11T00:18:31;18.23;;;12.00;;
12218;SDS011;6172;42.646;23.344;2022-12-11T00:20:59;20.67;;;12.77;;
12218;SDS011;6172;42.646;23.344;2022-12-11T00:23:26;18.10;;;12.97;;
12218;SDS011;6172;42.646;23.344;2022-12-11T00:25:54;18.57;;;13.10;;
12218;SDS011;6172;42.646;23.344;2022-12-11T00:28:22;21.63;;;13.17;;
12218;SDS011;6172;42.646;23.344;2022-12-11T00:30:49;23.27;;;13.67;;
12218;SDS011;6172;42.646;23.344;2022-12-11T00:33:16;19.33;;;11.93;;
12218;SDS011;6172;42.646;23.344;2022-12-11T00:35:44;19.63;;;11.87;;
12218;SDS011;6172;42.646;23.344;2022-12-11T00:38:13;16.83;;;10.60;;
12218;SDS011;6172;42.646;23.344;2022-12-11T00:40:41;17.70;;;9.83;;
12218;SDS011;6172;42.646;23.344;2022-12-11T00:43:10;18.20;;;10.27;;
12218;SDS011;6172;42.646;23.344;2022-12-11T00:45:37;18.17;;;10.67;;
12218;SDS011;6172;42.646;23.344;2022-12-11T00:48:09;19.60;;;11.43;;
12218;SDS011;6172;42.646;23.344;2022-12-11T00:50:37;15.90;;;10.13;;
12218;SDS011;6172;42.646;23.344;2022-12-11T00:53:05;17.03;;;11.00;;
12218;SDS011;6172;42.646;23.344;2022-12-11T00:55:35;19.53;;;11.17;;
12218;SDS011;6172;42.646;23.344;2022-12-11T00:58:03;18.50;;;10.00;;
12218;SDS011;6172;42.646;23.344;2022-12-11T01:00:32;18.83;;;10.90;;
12218;SDS011;6172;42.646;23.344;2022-12-11T01:03:00;16.57;;;10.73;;
12218;SDS011;6172;42.646;23.344;2022-12-11T01:05:27;14.73;;;10.23;;
12218;SDS011;6172;42.646;23.344;2022-12-11T01:07:54;15.67;;;10.17;;
12218;SDS011;6172;42.646;23.344;2022-12-11T01:10:21;15.90;;;9.07;;
12218;SDS011;6172;42.646;23.344;2022-12-11T01:12:49;13.13;;;8.57;;
12218;SDS011;6172;42.646;23.344;2022-12-11T01:15:17;15.13;;;7.93;;
12218;SDS011;6172;42.646;23.344;2022-12-11T01:17:45;11.10;;;7.73;;
12218;SDS011;6172;42.646;23.344;2022-12-11T01:20:12;14.23;;;8.13;;
12218;SDS011;6172;42.646;23.344;2022-12-11T01:22:40;12.03;;;7.30;;
12218;SDS011;6172;42.646;23.344;2022-12-11T01:25:07;12.10;;;8.07;;
12218;SDS011;6172;42.646;23.344;2022-12-11T01:27:35;12.23;;;7.90;;
12218;SDS011;6172;42.646;23.344;2022-12-11T01:30:03;13.30;;;8.10;;
12218;SDS011;6172;42.646;23.344;2022-12-11T01:32:33;11.13;;;7.47;;
12218;SDS011;6172;42.646;23.344;2022-12-11T01:35:03;12.17;;;7.70;;
12218;SDS011;6172;42.646;23.344;2022-12-11T01:37:31;1.80;;;1.43;;
12218;SDS011;6172;42.646;23.344;2022-12-11T01:39:59;6.07;;;2.70;;
12218;SDS011;6172;42.646;23.344;2022-12-11T01:42:27;5.73;;;0.70;;
12218;SDS011;6172;42.646;23.344;2022-12-11T01:48:03;1.37;;;0.10;;
12218;SDS011;6172;42.646;23.344;2022-12-11T01:50:38;1.23;;;0.00;;
12218;SDS011;6172;42.646;23.344;2022-12-11T01:53:09;2.83;;;0.73;;
12218;SDS011;6172;42.646;23.344;2022-12-11T01:55:39;6.37;;;3.90;;
12218;SDS011;6172;42.646;23.344;2022-12-11T01:58:07;5.13;;;3.83;;
12218;SDS011;6172;42.646;23.344;2022-12-11T02:00:37;4.53;;;2.60;;
12218;SDS011;6172;42.646;23.344;2022-12-11T02:03:05;7.30;;;3.70;;
12218;SDS011;6172;42.646;23.344;2022-12-11T02:05:33;0.40;;;0.00;;
12218;SDS011;6172;42.646;23.344;2022-12-11T02:08:03;1.40;;;0.20;;
12218;SDS011;6172;42.646;23.344;2022-12-11T02:10:35;2.90;;;0.30;;
12218;SDS011;6172;42.646;23.344;2022-12-11T02:13:13;1.20;;;0.40;;
12218;SDS011;6172;42.646;23.344;2022-12-11T02:15:48;0.60;;;0.43;;
12218;SDS011;6172;42.646;23.344;2022-12-11T02:18:22;0.47;;;0.40;;
12218;SDS011;6172;42.646;23.344;2022-12-11T02:20:59;0.50;;;0.40;;
12218;SDS011;6172;42.646;23.344;2022-12-11T02:26:46;0.10;;;0.10;;
12218;SDS011;6172;42.646;23.344;2022-12-11T02:29:30;2.23;;;0.57;;
12218;SDS011;6172;42.646;23.344;2022-12-11T02:32:02;0.50;;;0.40;;
12218;SDS011;6172;42.646;23.344;2022-12-11T02:34:36;2.63;;;0.90;;
12218;SDS011;6172;42.646;23.344;2022-12-11T02:37:08;4.00;;;2.13;;
12218;SDS011;6172;42.646;23.344;2022-12-11T02:39:40;3.23;;;1.73;;
12218;SDS011;6172;42.646;23.344;2022-12-11T02:42:10;4.90;;;1.70;;
12218;SDS011;6172;42.646;23.344;2022-12-11T02:44:41;2.53;;;1.53;;
12218;SDS011;6172;42.646;23.344;2022-12-11T02:47:11;1.67;;;1.30;;
12218;SDS011;6172;42.646;23.344;2022-12-11T02:49:42;3.67;;;2.00;;
12218;SDS011;6172;42.646;23.344;2022-12-11T02:52:13;4.63;;;2.27;;
12218;SDS011;6172;42.646;23.344;2022-12-11T02:54:44;3.83;;;1.80;;
12218;SDS011;6172;42.646;23.344;2022-12-11T02:57:13;2.03;;;1.37;;
12218;SDS011;6172;42.646;23.344;2022-12-11T02:59:48;1.60;;;0.63;;
12218;SDS011;6172;42.646;23.344;2022-12-11T03:02:14;3.10;;;1.60;;
12218;SDS011;6172;42.646;23.344;2022-12-11T03:04:43;1.63;;;0.53;;
12218;SDS011;6172;42.646;23.344;2022-12-11T03:07:11;0.30;;;0.20;;
12218;SDS011;6172;42.646;23.344;2022-12-11T03:09:43;0.20;;;0.20;;
12218;SDS011;6172;42.646;23.344;2022-12-11T03:12:12;2.40;;;0.30;;
12218;SDS011;6172;42.646;23.344;2022-12-11T03:14:41;1.90;;;0.80;;
12218;SDS011;6172;42.646;23.344;2022-12-11T03:17:13;1.83;;;0.73;;
12218;SDS011;6172;42.646;23.344;2022-12-11T03:19:44;0.50;;;0.47;;
12218;SDS011;6172;42.646;23.344;2022-12-11T03:22:16;1.37;;;0.57;;
12218;SDS011;6172;42.646;23.344;2022-12-11T03:24:49;1.80;;;0.90;;
12218;SDS011;6172;42.646;23.344;2022-12-11T03:27:19;1.40;;;0.70;;
12218;SDS011;6172;42.646;23.344;2022-12-11T03:29:53;1.80;;;0.90;;
12218;SDS011;6172;42.646;23.344;2022-12-11T03:32:25;1.37;;;1.13;;
12218;SDS011;6172;42.646;23.344;2022-12-11T03:34:58;2.00;;;1.00;;
12218;SDS011;6172;42.646;23.344;2022-12-11T03:37:30;2.30;;;1.10;;
12218;SDS011;6172;42.646;23.344;2022-12-11T03:40:05;1.60;;;0.90;;
12218;SDS011;6172;42.646;23.344;2022-12-11T03:42:36;2.07;;;1.00;;
12218;SDS011;6172;42.646;23.344;2022-12-11T03:45:06;2.37;;;0.80;;
12218;SDS011;6172;42.646;23.344;2022-12-11T03:47:35;3.03;;;0.60;;
12218;SDS011;6172;42.646;23.344;2022-12-11T03:50:05;1.07;;;0.70;;
12218;SDS011;6172;42.646;23.344;2022-12-11T03:52:36;2.23;;;0.40;;
12218;SDS011;6172;42.646;23.344;2022-12-11T03:55:07;0.20;;;0.20;;
12218;SDS011;6172;42.646;23.344;2022-12-11T03:57:36;1.83;;;0.43;;
12218;SDS011;6172;42.646;23.344;2022-12-11T04:00:05;0.57;;;0.30;;
12218;SDS011;6172;42.646;23.344;2022-12-11T04:02:35;1.17;;;0.30;;
12218;SDS011;6172;42.646;23.344;2022-12-11T04:05:02;1.03;;;0.43;;
12218;SDS011;6172;42.646;23.344;2022-12-11T04:07:29;0.30;;;0.30;;
12218;SDS011;6172;42.646;23.344;2022-12-11T04:09:57;0.27;;;0.23;;
12218;SDS011;6172;42.646;23.344;2022-12-11T04:12:23;0.73;;;0.30;;
12218;SDS011;6172;42.646;23.344;2022-12-11T04:14:50;0.20;;;0.20;;
12218;SDS011;6172;42.646;23.344;2022-12-11T04:17:28;0.40;;;0.20;;
12218;SDS011;6172;42.646;23.344;2022-12-11T04:20:15;1.97;;;0.20;;
12218;SDS011;6172;42.646;23.344;2022-12-11T04:23:02;1.73;;;0.30;;
12218;SDS011;6172;42.646;23.344;2022-12-11T04:25:47;3.07;;;0.20;;
12218;SDS011;6172;42.646;23.344;2022-12-11T04:28:14;0.30;;;0.20;;
12218;SDS011;6172;42.646;23.344;2022-12-11T04:30:46;3.60;;;0.27;;
12218;SDS011;6172;42.646;23.344;2022-12-11T04:33:14;0.10;;;0.10;;
12218;SDS011;6172;42.646;23.344;2022-12-11T04:35:42;0.47;;;0.20;;
12218;SDS011;6172;42.646;23.344;2022-12-11T04:38:09;1.77;;;0.20;;
12218;SDS011;6172;42.646;23.344;2022-12-11T04:40:37;1.90;;;0.30;;
12218;SDS011;6172;42.646;23.344;2022-12-11T04:43:03;0.30;;;0.20;;
12218;SDS011;6172;42.646;23.344;2022-12-11T04:45:33;0.43;;;0.20;;
12218;SDS011;6172;42.646;23.344;2022-12-11T04:48:00;0.40;;;0.10;;
12218;SDS011;6172;42.646;23.344;2022-12-11T04:50:27;0.20;;;0.10;;
12218;SDS011;6172;42.646;23.344;2022-12-11T04:52:55;1.47;;;0.10;;
12218;SDS011;6172;42.646;23.344;2022-12-11T04:55:22;0.73;;;0.10;;
12218;SDS011;6172;42.646;23.344;2022-12-11T04:57:49;0.40;;;0.10;;
12218;SDS011;6172;42.646;23.344;2022-12-11T05:00:16;1.17;;;0.27;;
12218;SDS011;6172;42.646;23.344;2022-12-11T05:02:43;0.23;;;0.10;;
12218;SDS011;6172;42.646;23.344;2022-12-11T05:05:10;2.90;;;0.20;;
12218;SDS011;6172;42.646;23.344;2022-12-11T05:07:38;0.20;;;0.20;;
12218;SDS011;6172;42.646;23.344;2022-12-11T05:10:08;1.57;;;0.10;;
12218;SDS011;6172;42.646;23.344;2022-12-11T05:12:35;1.70;;;0.10;;
12218;SDS011;6172;42.646;23.344;2022-12-11T05:15:02;0.93;;;0.10;;
12218;SDS011;6172;42.646;23.344;2022-12-11T05:17:30;1.60;;;0.20;;
12218;SDS011;6172;42.646;23.344;2022-12-11T05:19:57;0.67;;;0.10;;
12218;SDS011;6172;42.646;23.344;2022-12-11T05:22:25;0.83;;;0.17;;
12218;SDS011;6172;42.646;23.344;2022-12-11T05:24:52;1.60;;;0.10;;
12218;SDS011;6172;42.646;23.344;2022-12-11T05:27:21;0.23;;;0.00;;
12218;SDS011;6172;42.646;23.344;2022-12-11T05:29:49;0.87;;;0.10;;
12218;SDS011;6172;42.646;23.344;2022-12-11T05:32:16;1.70;;;0.10;;
12218;SDS011;6172;42.646;23.344;2022-12-11T05:34:43;1.47;;;0.37;;
12218;SDS011;6172;42.646;23.344;2022-12-11T05:37:10;1.00;;;0.20;;
12218;SDS011;6172;42.646;23.344;2022-12-11T05:39:37;1.90;;;0.20;;
12218;SDS011;6172;42.646;23.344;2022-12-11T05:42:05;1.80;;;0.10;;
12218;SDS011;6172;42.646;23.344;2022-12-11T05:44:33;1.03;;;0.10;;
12218;SDS011;6172;42.646;23.344;2022-12-11T05:47:00;0.63;;;0.20;;
12218;SDS011;6172;42.646;23.344;2022-12-11T05:49:27;0.33;;;0.20;;
12218;SDS011;6172;42.646;23.344;2022-12-11T05:51:54;0.90;;;0.23;;
12218;SDS011;6172;42.646;23.344;2022-12-11T05:54:20;1.33;;;0.40;;
12218;SDS011;6172;42.646;23.344;2022-12-11T05:56:48;0.77;;;0.20;;
12218;SDS011;6172;42.646;23.344;2022-12-11T05:59:15;0.30;;;0.10;;
12218;SDS011;6172;42.646;23.344;2022-12-11T06:01:45;0.83;;;0.20;;
12218;SDS011;6172;42.646;23.344;2022-12-11T06:04:12;2.53;;;0.13;;
12218;SDS011;6172;42.646;23.344;2022-12-11T06:06:39;1.37;;;0.10;;
12218;SDS011;6172;42.646;23.344;2022-12-11T06:09:10;1.17;;;0.13;;
12218;SDS011;6172;42.646;23.344;2022-12-11T06:11:39;0.73;;;0.20;;
12218;SDS011;6172;42.646;23.344;2022-12-11T06:14:06;2.80;;;0.30;;
12218;SDS011;6172;42.646;23.344;2022-12-11T06:16:32;0.80;;;0.03;;
12218;SDS011;6172;42.646;23.344;2022-12-11T06:19:03;1.23;;;0.10;;
12218;SDS011;6172;42.646;23.344;2022-12-11T06:21:31;1.03;;;0.10;;
12218;SDS011;6172;42.646;23.344;2022-12-11T06:23:59;0.20;;;0.17;;
12218;SDS011;6172;42.646;23.344;2022-12-11T06:26:27;0.57;;;0.20;;
12218;SDS011;6172;42.646;23.344;2022-12-11T06:28:54;1.60;;;0.27;;
12218;SDS011;6172;42.646;23.344;2022-12-11T06:31:23;1.73;;;0.20;;
12218;SDS011;6172;42.646;23.344;2022-12-11T06:33:50;1.13;;;0.20;;
12218;SDS011;6172;42.646;23.344;2022-12-11T06:36:19;0.73;;;0.20;;
12218;SDS011;6172;42.646;23.344;2022-12-11T06:38:50;2.30;;;0.13;;
12218;SDS011;6172;42.646;23.344;2022-12-11T06:41:17;0.40;;;0.10;;
12218;SDS011;6172;42.646;23.344;2022-12-11T06:43:44;0.80;;;0.20;;
12218;SDS011;6172;42.646;23.344;2022-12-11T06:46:12;0.10;;;0.10;;
12218;SDS011;6172;42.646;23.344;2022-12-11T06:48:40;0.10;;;0.10;;
12218;SDS011;6172;42.646;23.344;2022-12-11T06:51:08;0.47;;;0.20;;
12218;SDS011;6172;42.646;23.344;2022-12-11T06:53:38;0.77;;;0.10;;
12218;SDS011;6172;42.646;23.344;2022-12-11T06:56:06;0.20;;;0.20;;
12218;SDS011;6172;42.646;23.344;2022-12-11T06:58:35;0.47;;;0.00;;
12218;SDS011;6172;42.646;23.344;2022-12-11T07:01:03;1.87;;;0.30;;
12218;SDS011;6172;42.646;23.344;2022-12-11T07:03:37;0.20;;;0.10;;
12218;SDS011;6172;42.646;23.344;2022-12-11T07:06:05;1.70;;;0.30;;
12218;SDS011;6172;42.646;23.344;2022-12-11T07:08:32;2.53;;;0.20;;
12218;SDS011;6172;42.646;23.344;2022-12-11T07:11:05;1.97;;;0.20;;
12218;SDS011;6172;42.646;23.344;2022-12-11T07:13:36;2.53;;;0.10;;
12218;SDS011;6172;42.646;23.344;2022-12-11T07:16:06;0.83;;;0.20;;
12218;SDS011;6172;42.646;23.344;2022-12-11T07:18:35;0.83;;;0.20;;
12218;SDS011;6172;42.646;23.344;2022-12-11T07:21:03;0.93;;;0.23;;
12218;SDS011;6172;42.646;23.344;2022-12-11T07:23:30;1.40;;;0.30;;
12218;SDS011;6172;42.646;23.344;2022-12-11T07:25:57;0.97;;;0.20;;
12218;SDS011;6172;42.646;23.344;2022-12-11T07:28:25;0.17;;;0.17;;
12218;SDS011;6172;42.646;23.344;2022-12-11T07:30:53;0.20;;;0.10;;
12218;SDS011;6172;42.646;23.344;2022-12-11T07:33:21;0.80;;;0.10;;
12218;SDS011;6172;42.646;23.344;2022-12-11T07:35:48;1.50;;;0.10;;
12218;SDS011;6172;42.646;23.344;2022-12-11T07:38:15;0.73;;;0.10;;
12218;SDS011;6172;42.646;23.344;2022-12-11T07:40:42;0.53;;;0.20;;
12218;SDS011;6172;42.646;23.344;2022-12-11T07:43:09;0.50;;;0.20;;
12218;SDS011;6172;42.646;23.344;2022-12-11T07:45:38;1.03;;;0.30;;
12218;SDS011;6172;42.646;23.344;2022-12-11T07:48:05;1.57;;;0.43;;
12218;SDS011;6172;42.646;23.344;2022-12-11T07:50:32;2.27;;;0.30;;
12218;SDS011;6172;42.646;23.344;2022-12-11T07:52:59;2.57;;;0.20;;
12218;SDS011;6172;42.646;23.344;2022-12-11T07:55:30;3.70;;;0.50;;
12218;SDS011;6172;42.646;23.344;2022-12-11T07:57:57;0.57;;;0.30;;
12218;SDS011;6172;42.646;23.344;2022-12-11T08:00:24;2.10;;;0.20;;
12218;SDS011;6172;42.646;23.344;2022-12-11T08:03:03;0.33;;;0.20;;
12218;SDS011;6172;42.646;23.344;2022-12-11T08:05:31;0.20;;;0.17;;
12218;SDS011;6172;42.646;23.344;2022-12-11T08:08:01;1.40;;;0.50;;
12218;SDS011;6172;42.646;23.344;2022-12-11T08:10:28;1.07;;;0.30;;
12218;SDS011;6172;42.646;23.344;2022-12-11T08:12:57;1.77;;;0.30;;
12218;SDS011;6172;42.646;23.344;2022-12-11T08:15:24;0.40;;;0.40;;
12218;SDS011;6172;42.646;23.344;2022-12-11T08:17:51;1.20;;;0.20;;
12218;SDS011;6172;42.646;23.344;2022-12-11T08:20:22;2.07;;;0.30;;
12218;SDS011;6172;42.646;23.344;2022-12-11T08:22:52;0.70;;;0.23;;
12218;SDS011;6172;42.646;23.344;2022-12-11T08:25:20;1.37;;;0.20;;
12218;SDS011;6172;42.646;23.344;2022-12-11T08:27:47;2.33;;;0.20;;
12218;SDS011;6172;42.646;23.344;2022-12-11T08:30:27;0.50;;;0.20;;
12218;SDS011;6172;42.646;23.344;2022-12-11T08:32:58;2.00;;;0.30;;
12218;SDS011;6172;42.646;23.344;2022-12-11T08:35:26;0.37;;;0.20;;
12218;SDS011;6172;42.646;23.344;2022-12-11T08:37:54;0.93;;;0.20;;
12218;SDS011;6172;42.646;23.344;2022-12-11T08:40:34;0.40;;;0.20;;
12218;SDS011;6172;42.646;23.344;2022-12-11T08:43:01;3.97;;;0.97;;
12218;SDS011;6172;42.646;23.344;2022-12-11T08:45:28;0.50;;;0.30;;
12218;SDS011;6172;42.646;23.344;2022-12-11T08:47:58;2.30;;;0.40;;
12218;SDS011;6172;42.646;23.344;2022-12-11T08:53:12;0.83;;;0.27;;
12218;SDS011;6172;42.646;23.344;2022-12-11T08:55:39;0.40;;;0.40;;
12218;SDS011;6172;42.646;23.344;2022-12-11T08:58:06;0.67;;;0.17;;
12218;SDS011;6172;42.646;23.344;2022-12-11T09:00:56;1.20;;;0.40;;
12218;SDS011;6172;42.646;23.344;2022-12-11T09:03:53;3.17;;;1.33;;
12218;SDS011;6172;42.646;23.344;2022-12-11T09:06:33;2.03;;;0.47;;
12218;SDS011;6172;42.646;23.344;2022-12-11T09:09:00;0.33;;;0.20;;
12218;SDS011;6172;42.646;23.344;2022-12-11T09:11:32;1.87;;;0.30;;
12218;SDS011;6172;42.646;23.344;2022-12-11T09:14:04;0.40;;;0.40;;
12218;SDS011;6172;42.646;23.344;2022-12-11T09:16:31;0.87;;;0.60;;
12218;SDS011;6172;42.646;23.344;2022-12-11T09:19:10;0.57;;;0.30;;
12218;SDS011;6172;42.646;23.344;2022-12-11T09:21:41;0.60;;;0.50;;
12218;SDS011;6172;42.646;23.344;2022-12-11T09:24:10;0.37;;;0.30;;
12218;SDS011;6172;42.646;23.344;2022-12-11T09:26:38;0.20;;;0.20;;
12218;SDS011;6172;42.646;23.344;2022-12-11T09:29:07;0.63;;;0.33;;
12218;SDS011;6172;42.646;23.344;2022-12-11T09:31:36;0.43;;;0.20;;
12218;SDS011;6172;42.646;23.344;2022-12-11T09:34:16;0.67;;;0.30;;
12218;SDS011;6172;42.646;23.344;2022-12-11T09:36:45;0.40;;;0.30;;
12218;SDS011;6172;42.646;23.344;2022-12-11T09:39:15;0.50;;;0.23;;
12218;SDS011;6172;42.646;23.344;2022-12-11T09:41:45;0.67;;;0.20;;
12218;SDS011;6172;42.646;23.344;2022-12-11T09:44:23;0.77;;;0.40;;
12218;SDS011;6172;42.646;23.344;2022-12-11T09:47:22;1.77;;;0.30;;
12218;SDS011;6172;42.646;23.344;2022-12-11T09:49:53;0.87;;;0.20;;
12218;SDS011;6172;42.646;23.344;2022-12-11T09:52:31;0.37;;;0.37;;
12218;SDS011;6172;42.646;23.344;2022-12-11T09:55:02;0.83;;;0.47;;
12218;SDS011;6172;42.646;23.344;2022-12-11T09:57:38;1.57;;;0.40;;
12218;SDS011;6172;42.646;23.344;2022-12-11T10:00:23;0.93;;;0.27;;
12218;SDS011;6172;42.646;23.344;2022-12-11T10:03:07;0.47;;;0.30;;
12218;SDS011;6172;42.646;23.344;2022-12-11T10:05:52;0.30;;;0.30;;
12218;SDS011;6172;42.646;23.344;2022-12-11T10:08:29;1.43;;;0.30;;
12218;SDS011;6172;42.646;23.344;2022-12-11T10:11:11;0.57;;;0.20;;
12218;SDS011;6172;42.646;23.344;2022-12-11T10:14:04;0.60;;;0.40;;
12218;SDS011;6172;42.646;23.344;2022-12-11T10:17:12;0.33;;;0.30;;
12218;SDS011;6172;42.646;23.344;2022-12-11T10:19:44;0.40;;;0.40;;
12218;SDS011;6172;42.646;23.344;2022-12-11T10:22:16;0.80;;;0.30;;
12218;SDS011;6172;42.646;23.344;2022-12-11T10:24:51;1.70;;;0.67;;
12218;SDS011;6172;42.646;23.344;2022-12-11T10:27:23;1.13;;;0.60;;
12218;SDS011;6172;42.646;23.344;2022-12-11T10:30:00;0.63;;;0.40;;
12218;SDS011;6172;42.646;23.344;2022-12-11T10:32:34;0.97;;;0.40;;
12218;SDS011;6172;42.646;23.344;2022-12-11T10:35:08;1.40;;;0.80;;
12218;SDS011;6172;42.646;23.344;2022-12-11T10:37:55;0.50;;;0.40;;
12218;SDS011;6172;42.646;23.344;2022-12-11T10:40:31;0.80;;;0.40;;
12218;SDS011;6172;42.646;23.344;2022-12-11T10:43:15;1.43;;;0.83;;
12218;SDS011;6172;42.646;23.344;2022-12-11T10:45:51;1.13;;;0.50;;
12218;SDS011;6172;42.646;23.344;2022-12-11T10:48:19;1.40;;;0.80;;
12218;SDS011;6172;42.646;23.344;2022-12-11T10:50:56;1.83;;;0.97;;
12218;SDS011;6172;42.646;23.344;2022-12-11T10:53:36;2.43;;;0.30;;
12218;SDS011;6172;42.646;23.344;2022-12-11T10:56:10;1.40;;;0.87;;
12218;SDS011;6172;42.646;23.344;2022-12-11T10:58:47;0.60;;;0.50;;
12218;SDS011;6172;42.646;23.344;2022-12-11T11:01:18;0.70;;;0.70;;
12218;SDS011;6172;42.646;23.344;2022-12-11T11:03:52;1.88;;;0.52;;
12218;SDS011;6172;42.646;23.344;2022-12-11T11:06:22;2.07;;;0.43;;
12218;SDS011;6172;42.646;23.344;2022-12-11T11:08:51;0.93;;;0.60;;
12218;SDS011;6172;42.646;23.344;2022-12-11T11:11:25;0.50;;;0.50;;
12218;SDS011;6172;42.646;23.344;2022-12-11T11:14:16;1.43;;;0.67;;
12218;SDS011;6172;42.646;23.344;2022-12-11T11:16:44;1.83;;;0.50;;
12218;SDS011;6172;42.646;23.344;2022-12-11T11:19:20;0.53;;;0.50;;
12218;SDS011;6172;42.646;23.344;2022-12-11T11:21:52;1.73;;;0.70;;
12218;SDS011;6172;42.646;23.344;2022-12-11T11:27:22;1.00;;;0.70;;
12218;SDS011;6172;42.646;23.344;2022-12-11T11:29:58;1.00;;;0.73;;
12218;SDS011;6172;42.646;23.344;2022-12-11T11:32:30;1.63;;;1.27;;
12218;SDS011;6172;42.646;23.344;2022-12-11T11:35:13;1.33;;;0.87;;
12218;SDS011;6172;42.646;23.344;2022-12-11T11:37:45;0.70;;;0.50;;
12218;SDS011;6172;42.646;23.344;2022-12-11T11:40:21;2.20;;;0.90;;
12218;SDS011;6172;42.646;23.344;2022-12-11T11:42:55;0.40;;;0.40;;
12218;SDS011;6172;42.646;23.344;2022-12-11T11:45:31;12.57;;;2.00;;
12218;SDS011;6172;42.646;23.344;2022-12-11T11:48:05;5.40;;;1.60;;
12218;SDS011;6172;42.646;23.344;2022-12-11T11:50:46;1.30;;;0.97;;
12218;SDS011;6172;42.646;23.344;2022-12-11T11:53:16;0.67;;;0.60;;
12218;SDS011;6172;42.646;23.344;2022-12-11T11:55:53;3.20;;;0.93;;
12218;SDS011;6172;42.646;23.344;2022-12-11T11:58:42;3.27;;;1.10;;
12218;SDS011;6172;42.646;23.344;2022-12-11T12:01:14;1.00;;;0.60;;
12218;SDS011;6172;42.646;23.344;2022-12-11T12:03:46;0.77;;;0.77;;
12218;SDS011;6172;42.646;23.344;2022-12-11T12:06:15;2.77;;;0.83;;
12218;SDS011;6172;42.646;23.344;2022-12-11T12:08:51;1.83;;;0.90;;
12218;SDS011;6172;42.646;23.344;2022-12-11T12:11:27;3.40;;;2.00;;
12218;SDS011;6172;42.646;23.344;2022-12-11T12:14:13;1.90;;;1.40;;
12218;SDS011;6172;42.646;23.344;2022-12-11T12:16:51;1.50;;;0.97;;
12218;SDS011;6172;42.646;23.344;2022-12-11T12:19:31;1.10;;;0.90;;
12218;SDS011;6172;42.646;23.344;2022-12-11T12:25:01;0.97;;;0.77;;
12218;SDS011;6172;42.646;23.344;2022-12-11T12:27:36;1.30;;;1.20;;
12218;SDS011;6172;42.646;23.344;2022-12-11T12:30:14;4.23;;;1.60;;
12218;SDS011;6172;42.646;23.344;2022-12-11T12:32:48;1.13;;;1.00;;
12218;SDS011;6172;42.646;23.344;2022-12-11T12:35:29;2.67;;;1.00;;
12218;SDS011;6172;42.646;23.344;2022-12-11T12:38:02;2.43;;;0.90;;
12218;SDS011;6172;42.646;23.344;2022-12-11T12:40:43;1.80;;;1.17;;
12218;SDS011;6172;42.646;23.344;2022-12-11T12:43:28;5.63;;;1.30;;
12218;SDS011;6172;42.646;23.344;2022-12-11T12:46:05;4.10;;;1.70;;
12218;SDS011;6172;42.646;23.344;2022-12-11T12:48:43;1.43;;;1.33;;
12218;SDS011;6172;42.646;23.344;2022-12-11T12:51:11;1.83;;;0.70;;
12218;SDS011;6172;42.646;23.344;2022-12-11T12:53:39;2.53;;;0.70;;
12218;SDS011;6172;42.646;23.344;2022-12-11T12:56:12;1.17;;;0.50;;
12218;SDS011;6172;42.646;23.344;2022-12-11T12:58:40;1.00;;;0.53;;
12218;SDS011;6172;42.646;23.344;2022-12-11T13:01:15;0.80;;;0.60;;
12218;SDS011;6172;42.646;23.344;2022-12-11T13:03:49;1.80;;;0.50;;
12218;SDS011;6172;42.646;23.344;2022-12-11T13:06:27;1.70;;;0.70;;
12218;SDS011;6172;42.646;23.344;2022-12-11T13:09:09;1.07;;;0.70;;
12218;SDS011;6172;42.646;23.344;2022-12-11T13:11:42;1.00;;;0.80;;
12218;SDS011;6172;42.646;23.344;2022-12-11T13:14:23;1.50;;;1.07;;
12218;SDS011;6172;42.646;23.344;2022-12-11T13:17:06;2.63;;;1.20;;
12218;SDS011;6172;42.646;23.344;2022-12-11T13:20:08;2.80;;;1.57;;
12218;SDS011;6172;42.646;23.344;2022-12-11T13:22:46;1.77;;;1.10;;
12218;SDS011;6172;42.646;23.344;2022-12-11T13:25:23;1.27;;;0.93;;
12218;SDS011;6172;42.646;23.344;2022-12-11T13:28:03;2.37;;;0.87;;
12218;SDS011;6172;42.646;23.344;2022-12-11T13:30:31;2.23;;;0.80;;
12218;SDS011;6172;42.646;23.344;2022-12-11T13:33:13;1.20;;;1.07;;
12218;SDS011;6172;42.646;23.344;2022-12-11T13:35:43;2.23;;;0.90;;
12218;SDS011;6172;42.646;23.344;2022-12-11T13:38:18;1.43;;;1.10;;
12218;SDS011;6172;42.646;23.344;2022-12-11T13:41:10;1.90;;;0.90;;
12218;SDS011;6172;42.646;23.344;2022-12-11T13:43:39;2.40;;;0.90;;
12218;SDS011;6172;42.646;23.344;2022-12-11T13:46:13;3.00;;;0.87;;
12218;SDS011;6172;42.646;23.344;2022-12-11T13:48:47;4.73;;;1.00;;
12218;SDS011;6172;42.646;23.344;2022-12-11T13:51:19;1.20;;;1.10;;
12218;SDS011;6172;42.646;23.344;2022-12-11T13:53:48;0.93;;;0.87;;
12218;SDS011;6172;42.646;23.344;2022-12-11T13:56:27;0.60;;;0.60;;
12218;SDS011;6172;42.646;23.344;2022-12-11T13:58:54;0.67;;;0.50;;
12218;SDS011;6172;42.646;23.344;2022-12-11T14:01:22;0.67;;;0.43;;
12218;SDS011;6172;42.646;23.344;2022-12-11T14:03:54;0.50;;;0.30;;
12218;SDS011;6172;42.646;23.344;2022-12-11T14:06:23;0.70;;;0.50;;
12218;SDS011;6172;42.646;23.344;2022-12-11T14:08:53;1.23;;;0.33;;
12218;SDS011;6172;42.646;23.344;2022-12-11T14:11:25;0.30;;;0.30;;
12218;SDS011;6172;42.646;23.344;2022-12-11T14:13:55;0.83;;;0.40;;
12218;SDS011;6172;42.646;23.344;2022-12-11T14:16:27;0.70;;;0.40;;
12218;SDS011;6172;42.646;23.344;2022-12-11T14:18:58;1.57;;;0.60;;
12218;SDS011;6172;42.646;23.344;2022-12-11T14:21:30;1.30;;;0.47;;
12218;SDS011;6172;42.646;23.344;2022-12-11T14:23:58;0.53;;;0.30;;
12218;SDS011;6172;42.646;23.344;2022-12-11T14:26:28;0.60;;;0.30;;
12218;SDS011;6172;42.646;23.344;2022-12-11T14:28:56;1.37;;;0.47;;
12218;SDS011;6172;42.646;23.344;2022-12-11T14:31:25;1.13;;;0.40;;
12218;SDS011;6172;42.646;23.344;2022-12-11T14:33:59;0.67;;;0.30;;
12218;SDS011;6172;42.646;23.344;2022-12-11T14:36:32;0.40;;;0.20;;
12218;SDS011;6172;42.646;23.344;2022-12-11T14:39:03;0.60;;;0.30;;
12218;SDS011;6172;42.646;23.344;2022-12-11T14:41:35;0.70;;;0.33;;
12218;SDS011;6172;42.646;23.344;2022-12-11T14:44:06;1.00;;;0.40;;
12218;SDS011;6172;42.646;23.344;2022-12-11T14:46:43;0.30;;;0.30;;
12218;SDS011;6172;42.646;23.344;2022-12-11T14:49:16;1.33;;;0.50;;
12218;SDS011;6172;42.646;23.344;2022-12-11T14:51:46;0.57;;;0.30;;
12218;SDS011;6172;42.646;23.344;2022-12-11T14:54:16;0.97;;;0.30;;
12218;SDS011;6172;42.646;23.344;2022-12-11T14:56:54;1.60;;;0.40;;
12218;SDS011;6172;42.646;23.344;2022-12-11T14:59:23;0.60;;;0.40;;
12218;SDS011;6172;42.646;23.344;2022-12-11T15:01:57;0.63;;;0.47;;
12218;SDS011;6172;42.646;23.344;2022-12-11T15:04:28;0.67;;;0.30;;
12218;SDS011;6172;42.646;23.344;2022-12-11T15:06:56;0.50;;;0.27;;
12218;SDS011;6172;42.646;23.344;2022-12-11T15:09:25;0.73;;;0.30;;
12218;SDS011;6172;42.646;23.344;2022-12-11T15:11:54;0.93;;;0.50;;
12218;SDS011;6172;42.646;23.344;2022-12-11T15:14:22;0.50;;;0.20;;
12218;SDS011;6172;42.646;23.344;2022-12-11T15:16:51;1.20;;;0.40;;
12218;SDS011;6172;42.646;23.344;2022-12-11T15:19:22;1.30;;;0.47;;
12218;SDS011;6172;42.646;23.344;2022-12-11T15:21:54;0.70;;;0.57;;
12218;SDS011;6172;42.646;23.344;2022-12-11T15:24:28;1.33;;;0.70;;
12218;SDS011;6172;42.646;23.344;2022-12-11T15:27:00;0.73;;;0.40;;